sensor_id;sensor_type;location;lat;lon;timestamp;P1;durP1;ratioP1;P2;durP2;ratioP2
54454;SDS011;40364;52.270;10.546;2023-04-01T00:01:31;3.67;;;0.80;;
54454;SDS011;40364;52.270;10.546;2023-04-01T00:03:57;3.50;;;0.80;;
54454;SDS011;40364;52.270;10.546;2023-04-01T00:06:24;7.22;;;1.13;;
54454;SDS011;40364;52.270;10.546;2023-04-01T00:08:51;5.65;;;1.02;;
54454;SDS011;40364;52.270;10.546;2023-04-01T00:11:18;2.75;;;1.00;;
54454;SDS011;40364;52.270;10.546;2023-04-01T00:13:45;2.03;;;1.10;;
54454;SDS011;40364;52.270;10.546;2023-04-01T00:16:11;5.68;;;0.85;;
54454;SDS011;40364;52.270;10.546;2023-04-01T00:18:38;5.82;;;1.23;;
54454;SDS011;40364;52.270;10.546;2023-04-01T00:21:04;2.65;;;1.00;;
54454;SDS011;40364;52.270;10.546;2023-04-01T00:23:30;3.70;;;1.25;;
54454;SDS011;40364;52.270;10.546;2023-04-01T00:26:00;4.70;;;1.15;;
54454;SDS011;40364;52.270;10.546;2023-04-01T00:28:27;5.57;;;1.15;;
54454;SDS011;40364;52.270;10.546;2023-04-01T00:30:54;5.50;;;2.10;;
54454;SDS011;40364;52.270;10.546;2023-04-01T00:33:20;6.13;;;1.10;;
54454;SDS011;40364;52.270;10.546;2023-04-01T00:35:46;8.27;;;1.30;;
54454;SDS011;40364;52.270;10.546;2023-04-01T00:38:13;6.72;;;0.95;;
54454;SDS011;40364;52.270;10.546;2023-04-01T00:40:42;1.85;;;1.02;;
54454;SDS011;40364;52.270;10.546;2023-04-01T00:43:11;7.03;;;0.93;;
54454;SDS011;40364;52.270;10.546;2023-04-01T00:45:39;1.67;;;0.60;;
54454;SDS011;40364;52.270;10.546;2023-04-01T00:48:07;7.82;;;1.20;;
54454;SDS011;40364;52.270;10.546;2023-04-01T00:50:34;3.58;;;1.10;;
54454;SDS011;40364;52.270;10.546;2023-04-01T00:53:02;8.25;;;1.10;;
54454;SDS011;40364;52.270;10.546;2023-04-01T00:55:29;6.03;;;1.00;;
54454;SDS011;40364;52.270;10.546;2023-04-01T00:57:57;2.90;;;1.00;;
54454;SDS011;40364;52.270;10.546;2023-04-01T01:00:26;9.48;;;1.13;;
54454;SDS011;40364;52.270;10.546;2023-04-01T01:02:52;2.72;;;0.65;;
54454;SDS011;40364;52.270;10.546;2023-04-01T01:05:20;3.58;;;0.88;;
54454;SDS011;40364;52.270;10.546;2023-04-01T01:07:51;3.00;;;1.02;;
54454;SDS011;40364;52.270;10.546;2023-04-01T01:10:23;3.92;;;0.90;;
54454;SDS011;40364;52.270;10.546;2023-04-01T01:12:51;8.05;;;0.88;;
54454;SDS011;40364;52.270;10.546;2023-04-01T01:15:21;4.80;;;0.77;;
54454;SDS011;40364;52.270;10.546;2023-04-01T01:17:51;3.63;;;0.88;;
54454;SDS011;40364;52.270;10.546;2023-04-01T01:20:30;3.42;;;0.82;;
54454;SDS011;40364;52.270;10.546;2023-04-01T01:23:06;2.50;;;0.70;;
54454;SDS011;40364;52.270;10.546;2023-04-01T01:25:38;4.28;;;0.60;;
54454;SDS011;40364;52.270;10.546;2023-04-01T01:28:13;2.15;;;0.80;;
54454;SDS011;40364;52.270;10.546;2023-04-01T01:30:48;5.30;;;1.48;;
54454;SDS011;40364;52.270;10.546;2023-04-01T01:35:59;2.60;;;0.82;;
54454;SDS011;40364;52.270;10.546;2023-04-01T01:38:27;5.78;;;0.77;;
54454;SDS011;40364;52.270;10.546;2023-04-01T01:40:55;3.53;;;0.88;;
54454;SDS011;40364;52.270;10.546;2023-04-01T01:43:24;2.63;;;0.70;;
54454;SDS011;40364;52.270;10.546;2023-04-01T01:45:52;3.20;;;0.80;;
54454;SDS011;40364;52.270;10.546;2023-04-01T01:48:18;2.45;;;0.85;;
54454;SDS011;40364;52.270;10.546;2023-04-01T01:50:45;2.13;;;0.73;;
54454;SDS011;40364;52.270;10.546;2023-04-01T01:53:13;1.77;;;0.60;;
54454;SDS011;40364;52.270;10.546;2023-04-01T01:55:41;1.85;;;0.55;;
54454;SDS011;40364;52.270;10.546;2023-04-01T01:58:09;2.33;;;0.80;;
54454;SDS011;40364;52.270;10.546;2023-04-01T02:00:37;1.90;;;0.70;;
54454;SDS011;40364;52.270;10.546;2023-04-01T02:03:04;4.65;;;0.88;;
54454;SDS011;40364;52.270;10.546;2023-04-01T02:05:31;2.50;;;0.90;;
54454;SDS011;40364;52.270;10.546;2023-04-01T02:08:00;3.00;;;0.73;;
54454;SDS011;40364;52.270;10.546;2023-04-01T02:10:28;2.85;;;1.02;;
54454;SDS011;40364;52.270;10.546;2023-04-01T02:12:57;4.60;;;0.80;;
54454;SDS011;40364;52.270;10.546;2023-04-01T02:15:25;2.25;;;0.73;;
54454;SDS011;40364;52.270;10.546;2023-04-01T02:17:55;3.42;;;0.63;;
54454;SDS011;40364;52.270;10.546;2023-04-01T02:20:22;3.22;;;0.90;;
54454;SDS011;40364;52.270;10.546;2023-04-01T02:22:51;2.85;;;0.88;;
54454;SDS011;40364;52.270;10.546;2023-04-01T02:25:18;1.08;;;0.68;;
54454;SDS011;40364;52.270;10.546;2023-04-01T02:27:47;4.47;;;1.20;;
54454;SDS011;40364;52.270;10.546;2023-04-01T02:30:14;5.05;;;0.88;;
54454;SDS011;40364;52.270;10.546;2023-04-01T02:32:41;6.95;;;1.17;;
54454;SDS011;40364;52.270;10.546;2023-04-01T02:35:09;1.85;;;0.55;;
54454;SDS011;40364;52.270;10.546;2023-04-01T02:37:36;4.60;;;0.80;;
54454;SDS011;40364;52.270;10.546;2023-04-01T02:40:03;4.35;;;0.90;;
54454;SDS011;40364;52.270;10.546;2023-04-01T02:42:30;1.40;;;0.75;;
54454;SDS011;40364;52.270;10.546;2023-04-01T02:44:57;1.38;;;0.60;;
54454;SDS011;40364;52.270;10.546;2023-04-01T02:47:24;5.50;;;0.85;;
54454;SDS011;40364;52.270;10.546;2023-04-01T02:49:50;4.18;;;1.00;;
54454;SDS011;40364;52.270;10.546;2023-04-01T02:52:22;4.55;;;0.88;;
54454;SDS011;40364;52.270;10.546;2023-04-01T02:54:49;7.00;;;1.27;;
54454;SDS011;40364;52.270;10.546;2023-04-01T02:57:15;4.72;;;0.80;;
54454;SDS011;40364;52.270;10.546;2023-04-01T02:59:42;5.72;;;1.10;;
54454;SDS011;40364;52.270;10.546;2023-04-01T03:02:09;5.22;;;1.67;;
54454;SDS011;40364;52.270;10.546;2023-04-01T03:04:36;3.28;;;0.98;;
54454;SDS011;40364;52.270;10.546;2023-04-01T03:07:02;5.00;;;1.02;;
54454;SDS011;40364;52.270;10.546;2023-04-01T03:09:29;4.80;;;1.02;;
54454;SDS011;40364;52.270;10.546;2023-04-01T03:11:55;3.42;;;0.80;;
54454;SDS011;40364;52.270;10.546;2023-04-01T03:14:22;4.38;;;0.90;;
54454;SDS011;40364;52.270;10.546;2023-04-01T03:16:48;3.63;;;1.17;;
54454;SDS011;40364;52.270;10.546;2023-04-01T03:19:16;2.45;;;0.73;;
54454;SDS011;40364;52.270;10.546;2023-04-01T03:21:42;4.15;;;0.70;;
54454;SDS011;40364;52.270;10.546;2023-04-01T03:24:08;3.30;;;0.90;;
54454;SDS011;40364;52.270;10.546;2023-04-01T03:26:35;3.67;;;0.75;;
54454;SDS011;40364;52.270;10.546;2023-04-01T03:29:01;8.07;;;1.35;;
54454;SDS011;40364;52.270;10.546;2023-04-01T03:31:28;3.22;;;0.80;;
54454;SDS011;40364;52.270;10.546;2023-04-01T03:33:54;2.38;;;0.73;;
54454;SDS011;40364;52.270;10.546;2023-04-01T03:36:22;6.53;;;2.35;;
54454;SDS011;40364;52.270;10.546;2023-04-01T03:38:48;4.00;;;0.77;;
54454;SDS011;40364;52.270;10.546;2023-04-01T03:41:15;6.07;;;1.42;;
54454;SDS011;40364;52.270;10.546;2023-04-01T03:43:42;3.60;;;1.10;;
54454;SDS011;40364;52.270;10.546;2023-04-01T03:46:08;1.75;;;0.73;;
54454;SDS011;40364;52.270;10.546;2023-04-01T03:48:35;2.20;;;0.90;;
54454;SDS011;40364;52.270;10.546;2023-04-01T03:51:01;4.10;;;1.02;;
54454;SDS011;40364;52.270;10.546;2023-04-01T03:53:33;1.23;;;0.73;;
54454;SDS011;40364;52.270;10.546;2023-04-01T03:56:03;2.63;;;1.05;;
54454;SDS011;40364;52.270;10.546;2023-04-01T03:58:29;2.72;;;0.95;;
54454;SDS011;40364;52.270;10.546;2023-04-01T04:00:56;1.65;;;0.90;;
54454;SDS011;40364;52.270;10.546;2023-04-01T04:03:22;4.72;;;0.90;;
54454;SDS011;40364;52.270;10.546;2023-04-01T04:05:49;3.10;;;0.95;;
54454;SDS011;40364;52.270;10.546;2023-04-01T04:08:15;3.63;;;1.00;;
54454;SDS011;40364;52.270;10.546;2023-04-01T04:10:43;1.60;;;1.02;;
54454;SDS011;40364;52.270;10.546;2023-04-01T04:13:09;2.75;;;0.75;;
54454;SDS011;40364;52.270;10.546;2023-04-01T04:15:36;3.30;;;0.95;;
54454;SDS011;40364;52.270;10.546;2023-04-01T04:18:02;2.80;;;0.73;;
54454;SDS011;40364;52.270;10.546;2023-04-01T04:20:29;2.38;;;0.95;;
54454;SDS011;40364;52.270;10.546;2023-04-01T04:22:55;1.75;;;0.95;;
54454;SDS011;40364;52.270;10.546;2023-04-01T04:25:21;1.52;;;0.80;;
54454;SDS011;40364;52.270;10.546;2023-04-01T04:27:49;2.13;;;0.88;;
54454;SDS011;40364;52.270;10.546;2023-04-01T04:30:16;2.88;;;0.68;;
54454;SDS011;40364;52.270;10.546;2023-04-01T04:32:42;2.88;;;1.20;;
54454;SDS011;40364;52.270;10.546;2023-04-01T04:35:08;3.30;;;0.65;;
54454;SDS011;40364;52.270;10.546;2023-04-01T04:37:35;6.82;;;1.08;;
54454;SDS011;40364;52.270;10.546;2023-04-01T04:40:01;2.53;;;0.90;;
54454;SDS011;40364;52.270;10.546;2023-04-01T04:42:28;3.17;;;0.88;;
54454;SDS011;40364;52.270;10.546;2023-04-01T04:44:56;2.65;;;0.85;;
54454;SDS011;40364;52.270;10.546;2023-04-01T04:47:22;2.25;;;1.00;;
54454;SDS011;40364;52.270;10.546;2023-04-01T04:49:48;2.65;;;0.75;;
54454;SDS011;40364;52.270;10.546;2023-04-01T04:52:15;3.67;;;0.77;;
54454;SDS011;40364;52.270;10.546;2023-04-01T04:54:41;5.30;;;1.00;;
54454;SDS011;40364;52.270;10.546;2023-04-01T04:57:08;6.90;;;0.75;;
54454;SDS011;40364;52.270;10.546;2023-04-01T04:59:34;2.63;;;0.80;;
54454;SDS011;40364;52.270;10.546;2023-04-01T05:02:03;2.17;;;0.70;;
54454;SDS011;40364;52.270;10.546;2023-04-01T05:04:29;2.72;;;0.80;;
54454;SDS011;40364;52.270;10.546;2023-04-01T05:06:55;2.50;;;0.80;;
54454;SDS011;40364;52.270;10.546;2023-04-01T05:09:22;1.40;;;0.60;;
54454;SDS011;40364;52.270;10.546;2023-04-01T05:11:48;4.97;;;1.02;;
54454;SDS011;40364;52.270;10.546;2023-04-01T05:14:15;2.22;;;0.80;;
54454;SDS011;40364;52.270;10.546;2023-04-01T05:16:41;1.08;;;0.82;;
54454;SDS011;40364;52.270;10.546;2023-04-01T05:19:09;1.23;;;0.68;;
54454;SDS011;40364;52.270;10.546;2023-04-01T05:21:35;1.45;;;0.80;;
54454;SDS011;40364;52.270;10.546;2023-04-01T05:24:02;1.48;;;0.80;;
54454;SDS011;40364;52.270;10.546;2023-04-01T05:26:28;3.13;;;1.02;;
54454;SDS011;40364;52.270;10.546;2023-04-01T05:28:55;1.95;;;0.85;;
54454;SDS011;40364;52.270;10.546;2023-04-01T05:31:22;1.92;;;0.70;;
54454;SDS011;40364;52.270;10.546;2023-04-01T05:33:49;3.63;;;0.90;;
54454;SDS011;40364;52.270;10.546;2023-04-01T05:36:16;2.13;;;0.80;;
54454;SDS011;40364;52.270;10.546;2023-04-01T05:38:43;2.72;;;0.70;;
54454;SDS011;40364;52.270;10.546;2023-04-01T05:41:10;3.20;;;1.10;;
54454;SDS011;40364;52.270;10.546;2023-04-01T05:43:37;2.25;;;0.90;;
54454;SDS011;40364;52.270;10.546;2023-04-01T05:46:04;2.17;;;0.88;;
54454;SDS011;40364;52.270;10.546;2023-04-01T05:48:30;3.50;;;1.00;;
54454;SDS011;40364;52.270;10.546;2023-04-01T05:50:57;3.33;;;1.05;;
54454;SDS011;40364;52.270;10.546;2023-04-01T05:53:24;2.85;;;1.10;;
54454;SDS011;40364;52.270;10.546;2023-04-01T05:55:51;2.92;;;1.17;;
54454;SDS011;40364;52.270;10.546;2023-04-01T05:58:17;2.67;;;0.80;;
54454;SDS011;40364;52.270;10.546;2023-04-01T06:00:44;1.70;;;1.13;;
54454;SDS011;40364;52.270;10.546;2023-04-01T06:03:10;3.67;;;0.80;;
54454;SDS011;40364;52.270;10.546;2023-04-01T06:05:38;1.38;;;0.85;;
54454;SDS011;40364;52.270;10.546;2023-04-01T06:08:06;1.45;;;0.70;;
54454;SDS011;40364;52.270;10.546;2023-04-01T06:10:39;4.40;;;1.33;;
54454;SDS011;40364;52.270;10.546;2023-04-01T06:13:10;2.17;;;1.00;;
54454;SDS011;40364;52.270;10.546;2023-04-01T06:15:43;2.63;;;0.68;;
54454;SDS011;40364;52.270;10.546;2023-04-01T06:18:19;3.20;;;0.90;;
54454;SDS011;40364;52.270;10.546;2023-04-01T06:20:49;3.63;;;0.73;;
54454;SDS011;40364;52.270;10.546;2023-04-01T06:23:23;1.02;;;0.80;;
54454;SDS011;40364;52.270;10.546;2023-04-01T06:25:55;1.80;;;0.93;;
54454;SDS011;40364;52.270;10.546;2023-04-01T06:31:08;4.47;;;1.27;;
54454;SDS011;40364;52.270;10.546;2023-04-01T06:36:21;2.95;;;0.75;;
54454;SDS011;40364;52.270;10.546;2023-04-01T06:39:00;3.63;;;1.00;;
54454;SDS011;40364;52.270;10.546;2023-04-01T06:44:23;2.05;;;1.00;;
54454;SDS011;40364;52.270;10.546;2023-04-01T06:46:57;3.40;;;0.80;;
54454;SDS011;40364;52.270;10.546;2023-04-01T06:49:35;4.38;;;0.90;;
54454;SDS011;40364;52.270;10.546;2023-04-01T06:52:05;1.20;;;0.80;;
54454;SDS011;40364;52.270;10.546;2023-04-01T06:54:35;1.98;;;0.70;;
54454;SDS011;40364;52.270;10.546;2023-04-01T06:57:03;1.95;;;1.10;;
54454;SDS011;40364;52.270;10.546;2023-04-01T06:59:33;2.30;;;0.65;;
54454;SDS011;40364;52.270;10.546;2023-04-01T07:02:01;2.17;;;0.90;;
54454;SDS011;40364;52.270;10.546;2023-04-01T07:04:31;1.75;;;1.13;;
54454;SDS011;40364;52.270;10.546;2023-04-01T07:06:59;2.10;;;0.73;;
54454;SDS011;40364;52.270;10.546;2023-04-01T07:09:28;3.38;;;0.85;;
54454;SDS011;40364;52.270;10.546;2023-04-01T07:11:56;3.15;;;0.60;;
54454;SDS011;40364;52.270;10.546;2023-04-01T07:14:27;2.60;;;0.40;;
54454;SDS011;40364;52.270;10.546;2023-04-01T07:16:58;3.22;;;0.85;;
54454;SDS011;40364;52.270;10.546;2023-04-01T07:19:26;0.65;;;0.45;;
54454;SDS011;40364;52.270;10.546;2023-04-01T07:21:56;1.52;;;0.80;;
54454;SDS011;40364;52.270;10.546;2023-04-01T07:24:24;0.70;;;0.60;;
54454;SDS011;40364;52.270;10.546;2023-04-01T07:26:54;2.22;;;0.40;;
54454;SDS011;40364;52.270;10.546;2023-04-01T07:29:21;1.65;;;0.50;;
54454;SDS011;40364;52.270;10.546;2023-04-01T07:31:51;0.70;;;0.40;;
54454;SDS011;40364;52.270;10.546;2023-04-01T07:34:25;1.58;;;0.60;;
54454;SDS011;40364;52.270;10.546;2023-04-01T07:36:53;1.83;;;0.50;;
54454;SDS011;40364;52.270;10.546;2023-04-01T07:39:25;0.80;;;0.50;;
54454;SDS011;40364;52.270;10.546;2023-04-01T07:41:56;0.70;;;0.40;;
54454;SDS011;40364;52.270;10.546;2023-04-01T07:44:25;0.50;;;0.40;;
54454;SDS011;40364;52.270;10.546;2023-04-01T07:49:42;1.48;;;0.40;;
54454;SDS011;40364;52.270;10.546;2023-04-01T07:52:14;1.40;;;0.68;;
54454;SDS011;40364;52.270;10.546;2023-04-01T07:54:46;0.50;;;0.50;;
54454;SDS011;40364;52.270;10.546;2023-04-01T07:57:16;0.52;;;0.40;;
54454;SDS011;40364;52.270;10.546;2023-04-01T07:59:45;1.75;;;0.50;;
54454;SDS011;40364;52.270;10.546;2023-04-01T08:02:21;1.13;;;0.65;;
54454;SDS011;40364;52.270;10.546;2023-04-01T08:04:55;2.05;;;0.60;;
54454;SDS011;40364;52.270;10.546;2023-04-01T08:07:25;1.38;;;0.57;;
54454;SDS011;40364;52.270;10.546;2023-04-01T08:09:53;0.55;;;0.43;;
54454;SDS011;40364;52.270;10.546;2023-04-01T08:12:24;2.40;;;0.80;;
54454;SDS011;40364;52.270;10.546;2023-04-01T08:14:56;0.38;;;0.35;;
54454;SDS011;40364;52.270;10.546;2023-04-01T08:17:28;1.13;;;0.50;;
54454;SDS011;40364;52.270;10.546;2023-04-01T08:20:02;1.90;;;0.68;;
54454;SDS011;40364;52.270;10.546;2023-04-01T08:22:35;1.08;;;0.60;;
54454;SDS011;40364;52.270;10.546;2023-04-01T08:25:04;2.08;;;0.57;;
54454;SDS011;40364;52.270;10.546;2023-04-01T08:27:34;1.90;;;0.45;;
54454;SDS011;40364;52.270;10.546;2023-04-01T08:30:02;2.92;;;0.70;;
54454;SDS011;40364;52.270;10.546;2023-04-01T08:32:30;0.98;;;0.40;;
54454;SDS011;40364;52.270;10.546;2023-04-01T08:35:05;1.45;;;0.60;;
54454;SDS011;40364;52.270;10.546;2023-04-01T08:37:34;2.75;;;0.50;;
54454;SDS011;40364;52.270;10.546;2023-04-01T08:40:02;1.08;;;0.60;;
54454;SDS011;40364;52.270;10.546;2023-04-01T08:42:36;0.60;;;0.30;;
54454;SDS011;40364;52.270;10.546;2023-04-01T08:45:15;1.20;;;0.40;;
54454;SDS011;40364;52.270;10.546;2023-04-01T08:47:50;0.93;;;0.40;;
54454;SDS011;40364;52.270;10.546;2023-04-01T08:50:35;3.33;;;0.60;;
54454;SDS011;40364;52.270;10.546;2023-04-01T08:53:05;0.38;;;0.38;;
54454;SDS011;40364;52.270;10.546;2023-04-01T08:55:41;0.75;;;0.30;;
54454;SDS011;40364;52.270;10.546;2023-04-01T08:58:32;1.35;;;0.45;;
54454;SDS011;40364;52.270;10.546;2023-04-01T09:01:11;0.35;;;0.28;;
54454;SDS011;40364;52.270;10.546;2023-04-01T09:03:56;0.38;;;0.30;;
54454;SDS011;40364;52.270;10.546;2023-04-01T09:09:09;1.88;;;0.40;;
54454;SDS011;40364;52.270;10.546;2023-04-01T09:11:44;0.82;;;0.43;;
54454;SDS011;40364;52.270;10.546;2023-04-01T09:14:21;0.95;;;0.45;;
54454;SDS011;40364;52.270;10.546;2023-04-01T09:16:58;1.77;;;0.32;;
54454;SDS011;40364;52.270;10.546;2023-04-01T09:19:28;0.43;;;0.43;;
54454;SDS011;40364;52.270;10.546;2023-04-01T09:22:09;1.38;;;0.30;;
54454;SDS011;40364;52.270;10.546;2023-04-01T09:24:42;1.33;;;0.40;;
54454;SDS011;40364;52.270;10.546;2023-04-01T09:27:12;1.08;;;0.43;;
54454;SDS011;40364;52.270;10.546;2023-04-01T09:29:45;0.80;;;0.20;;
54454;SDS011;40364;52.270;10.546;2023-04-01T09:35:06;2.53;;;0.43;;
54454;SDS011;40364;52.270;10.546;2023-04-01T09:37:57;0.40;;;0.30;;
54454;SDS011;40364;52.270;10.546;2023-04-01T09:40:33;1.98;;;0.35;;
54454;SDS011;40364;52.270;10.546;2023-04-01T09:43:06;1.00;;;0.30;;
54454;SDS011;40364;52.270;10.546;2023-04-01T09:45:44;1.55;;;0.30;;
54454;SDS011;40364;52.270;10.546;2023-04-01T09:48:15;0.77;;;0.25;;
54454;SDS011;40364;52.270;10.546;2023-04-01T09:50:48;0.40;;;0.25;;
54454;SDS011;40364;52.270;10.546;2023-04-01T09:53:19;0.95;;;0.30;;
54454;SDS011;40364;52.270;10.546;2023-04-01T09:56:04;0.73;;;0.43;;
54454;SDS011;40364;52.270;10.546;2023-04-01T09:58:46;0.30;;;0.28;;
54454;SDS011;40364;52.270;10.546;2023-04-01T10:01:42;0.32;;;0.20;;
54454;SDS011;40364;52.270;10.546;2023-04-01T10:04:23;0.88;;;0.30;;
54454;SDS011;40364;52.270;10.546;2023-04-01T10:21:16;0.38;;;0.20;;
54454;SDS011;40364;52.270;10.546;2023-04-01T10:23:51;0.60;;;0.20;;
54454;SDS011;40364;52.270;10.546;2023-04-01T10:26:23;0.90;;;0.30;;
54454;SDS011;40364;52.270;10.546;2023-04-01T10:29:02;1.63;;;0.40;;
54454;SDS011;40364;52.270;10.546;2023-04-01T10:31:42;1.55;;;0.88;;
54454;SDS011;40364;52.270;10.546;2023-04-01T10:34:20;3.92;;;1.02;;
54454;SDS011;40364;52.270;10.546;2023-04-01T10:36:54;2.88;;;0.90;;
54454;SDS011;40364;52.270;10.546;2023-04-01T10:47:47;0.53;;;0.47;;
54454;SDS011;40364;52.270;10.546;2023-04-01T10:50:31;1.35;;;0.60;;
54454;SDS011;40364;52.270;10.546;2023-04-01T10:53:15;1.80;;;0.28;;
54454;SDS011;40364;52.270;10.546;2023-04-01T10:58:34;0.60;;;0.30;;
54454;SDS011;40364;52.270;10.546;2023-04-01T11:01:20;0.38;;;0.28;;
54454;SDS011;40364;52.270;10.546;2023-04-01T11:06:54;1.08;;;0.30;;
54454;SDS011;40364;52.270;10.546;2023-04-01T11:15:23;0.57;;;0.28;;
54454;SDS011;40364;52.270;10.546;2023-04-01T11:18:04;0.75;;;0.13;;
54454;SDS011;40364;52.270;10.546;2023-04-01T11:20:45;0.32;;;0.13;;
54454;SDS011;40364;52.270;10.546;2023-04-01T11:23:33;0.10;;;0.10;;
54454;SDS011;40364;52.270;10.546;2023-04-01T11:26:09;0.20;;;0.10;;
54454;SDS011;40364;52.270;10.546;2023-04-01T11:28:47;0.52;;;0.30;;
54454;SDS011;40364;52.270;10.546;2023-04-01T11:31:25;0.40;;;0.20;;
54454;SDS011;40364;52.270;10.546;2023-04-01T11:33:57;0.57;;;0.38;;
54454;SDS011;40364;52.270;10.546;2023-04-01T11:36:32;0.30;;;0.10;;
54454;SDS011;40364;52.270;10.546;2023-04-01T11:39:05;0.47;;;0.30;;
54454;SDS011;40364;52.270;10.546;2023-04-01T11:41:37;0.55;;;0.30;;
54454;SDS011;40364;52.270;10.546;2023-04-01T11:44:12;0.40;;;0.20;;
54454;SDS011;40364;52.270;10.546;2023-04-01T11:46:45;2.78;;;0.30;;
54454;SDS011;40364;52.270;10.546;2023-04-01T11:49:18;0.28;;;0.28;;
54454;SDS011;40364;52.270;10.546;2023-04-01T11:51:52;1.23;;;0.30;;
54454;SDS011;40364;52.270;10.546;2023-04-01T11:54:28;0.85;;;0.30;;
54454;SDS011;40364;52.270;10.546;2023-04-01T11:57:17;1.45;;;0.22;;
54454;SDS011;40364;52.270;10.546;2023-04-01T12:02:37;0.65;;;0.30;;
54454;SDS011;40364;52.270;10.546;2023-04-01T12:05:18;0.20;;;0.20;;
54454;SDS011;40364;52.270;10.546;2023-04-01T12:07:57;0.88;;;0.40;;
54454;SDS011;40364;52.270;10.546;2023-04-01T12:10:29;0.45;;;0.30;;
54454;SDS011;40364;52.270;10.546;2023-04-01T12:13:01;0.20;;;0.20;;
54454;SDS011;40364;52.270;10.546;2023-04-01T12:15:30;0.85;;;0.30;;
54454;SDS011;40364;52.270;10.546;2023-04-01T12:18:05;0.57;;;0.40;;
54454;SDS011;40364;52.270;10.546;2023-04-01T12:20:36;0.55;;;0.22;;
54454;SDS011;40364;52.270;10.546;2023-04-01T12:23:08;0.88;;;0.40;;
54454;SDS011;40364;52.270;10.546;2023-04-01T12:25:51;0.40;;;0.35;;
54454;SDS011;40364;52.270;10.546;2023-04-01T12:28:23;0.77;;;0.40;;
54454;SDS011;40364;52.270;10.546;2023-04-01T12:30:57;0.55;;;0.30;;
54454;SDS011;40364;52.270;10.546;2023-04-01T12:33:33;1.25;;;0.40;;
54454;SDS011;40364;52.270;10.546;2023-04-01T12:36:03;1.73;;;0.43;;
54454;SDS011;40364;52.270;10.546;2023-04-01T12:38:40;0.70;;;0.50;;
54454;SDS011;40364;52.270;10.546;2023-04-01T12:41:09;1.85;;;0.40;;
54454;SDS011;40364;52.270;10.546;2023-04-01T12:46:25;1.15;;;0.30;;
54454;SDS011;40364;52.270;10.546;2023-04-01T12:51:51;1.85;;;0.60;;
54454;SDS011;40364;52.270;10.546;2023-04-01T12:57:07;0.70;;;0.43;;
54454;SDS011;40364;52.270;10.546;2023-04-01T12:59:45;2.83;;;0.65;;
54454;SDS011;40364;52.270;10.546;2023-04-01T13:02:20;1.33;;;0.45;;
54454;SDS011;40364;52.270;10.546;2023-04-01T13:04:54;0.63;;;0.43;;
54454;SDS011;40364;52.270;10.546;2023-04-01T13:10:10;0.77;;;0.30;;
54454;SDS011;40364;52.270;10.546;2023-04-01T13:12:44;0.93;;;0.40;;
54454;SDS011;40364;52.270;10.546;2023-04-01T13:15:21;1.00;;;0.40;;
54454;SDS011;40364;52.270;10.546;2023-04-01T13:17:50;3.97;;;1.05;;
54454;SDS011;40364;52.270;10.546;2023-04-01T13:20:21;2.00;;;0.73;;
54454;SDS011;40364;52.270;10.546;2023-04-01T13:22:52;2.03;;;0.47;;
54454;SDS011;40364;52.270;10.546;2023-04-01T13:25:26;2.60;;;0.65;;
54454;SDS011;40364;52.270;10.546;2023-04-01T13:27:56;0.43;;;0.43;;
54454;SDS011;40364;52.270;10.546;2023-04-01T13:30:25;4.65;;;0.80;;
54454;SDS011;40364;52.270;10.546;2023-04-01T13:32:55;1.85;;;0.88;;
54454;SDS011;40364;52.270;10.546;2023-04-01T13:35:26;1.27;;;0.70;;
54454;SDS011;40364;52.270;10.546;2023-04-01T13:40:28;2.53;;;0.70;;
54454;SDS011;40364;52.270;10.546;2023-04-01T13:42:57;2.00;;;0.90;;
54454;SDS011;40364;52.270;10.546;2023-04-01T13:45:26;0.95;;;0.82;;
54454;SDS011;40364;52.270;10.546;2023-04-01T13:47:59;1.17;;;0.80;;
54454;SDS011;40364;52.270;10.546;2023-04-01T13:53:20;0.70;;;0.70;;
54454;SDS011;40364;52.270;10.546;2023-04-01T13:55:59;0.80;;;0.80;;
54454;SDS011;40364;52.270;10.546;2023-04-01T13:58:37;1.55;;;0.70;;
54454;SDS011;40364;52.270;10.546;2023-04-01T14:01:06;2.40;;;0.80;;
54454;SDS011;40364;52.270;10.546;2023-04-01T14:03:41;1.20;;;0.80;;
54454;SDS011;40364;52.270;10.546;2023-04-01T14:06:13;0.93;;;0.68;;
54454;SDS011;40364;52.270;10.546;2023-04-01T14:08:47;1.15;;;0.70;;
54454;SDS011;40364;52.270;10.546;2023-04-01T14:11:19;0.82;;;0.70;;
54454;SDS011;40364;52.270;10.546;2023-04-01T14:13:52;0.80;;;0.63;;
54454;SDS011;40364;52.270;10.546;2023-04-01T14:16:26;0.85;;;0.70;;
54454;SDS011;40364;52.270;10.546;2023-04-01T14:19:07;0.85;;;0.57;;
54454;SDS011;40364;52.270;10.546;2023-04-01T14:21:35;2.42;;;0.70;;
54454;SDS011;40364;52.270;10.546;2023-04-01T14:24:07;0.77;;;0.77;;
54454;SDS011;40364;52.270;10.546;2023-04-01T14:29:20;1.27;;;0.80;;
54454;SDS011;40364;52.270;10.546;2023-04-01T14:31:51;1.08;;;0.73;;
54454;SDS011;40364;52.270;10.546;2023-04-01T14:34:25;0.70;;;0.60;;
54454;SDS011;40364;52.270;10.546;2023-04-01T14:37:00;1.10;;;0.98;;
54454;SDS011;40364;52.270;10.546;2023-04-01T14:39:43;1.13;;;0.65;;
54454;SDS011;40364;52.270;10.546;2023-04-01T14:42:23;2.40;;;1.02;;
54454;SDS011;40364;52.270;10.546;2023-04-01T14:45:08;1.45;;;0.60;;
54454;SDS011;40364;52.270;10.546;2023-04-01T14:47:46;0.80;;;0.80;;
54454;SDS011;40364;52.270;10.546;2023-04-01T14:50:14;2.08;;;0.80;;
54454;SDS011;40364;52.270;10.546;2023-04-01T14:52:42;1.17;;;0.88;;
54454;SDS011;40364;52.270;10.546;2023-04-01T14:55:19;1.23;;;0.88;;
54454;SDS011;40364;52.270;10.546;2023-04-01T14:57:57;1.83;;;1.10;;
54454;SDS011;40364;52.270;10.546;2023-04-01T15:00:25;1.08;;;0.80;;
54454;SDS011;40364;52.270;10.546;2023-04-01T15:02:54;1.58;;;0.85;;
54454;SDS011;40364;52.270;10.546;2023-04-01T15:05:27;3.58;;;1.20;;
54454;SDS011;40364;52.270;10.546;2023-04-01T15:08:03;1.10;;;0.95;;
54454;SDS011;40364;52.270;10.546;2023-04-01T15:10:35;3.08;;;1.20;;
54454;SDS011;40364;52.270;10.546;2023-04-01T15:13:11;1.45;;;1.20;;
54454;SDS011;40364;52.270;10.546;2023-04-01T15:15:42;2.17;;;1.17;;
54454;SDS011;40364;52.270;10.546;2023-04-01T15:18:12;1.35;;;1.00;;
54454;SDS011;40364;52.270;10.546;2023-04-01T15:23:26;1.73;;;1.10;;
54454;SDS011;40364;52.270;10.546;2023-04-01T15:26:17;1.20;;;1.00;;
54454;SDS011;40364;52.270;10.546;2023-04-01T15:28:49;1.35;;;1.05;;
54454;SDS011;40364;52.270;10.546;2023-04-01T15:31:21;0.93;;;0.80;;
54454;SDS011;40364;52.270;10.546;2023-04-01T15:33:54;1.08;;;0.82;;
54454;SDS011;40364;52.270;10.546;2023-04-01T15:36:29;3.03;;;1.10;;
54454;SDS011;40364;52.270;10.546;2023-04-01T15:38:58;0.70;;;0.70;;
54454;SDS011;40364;52.270;10.546;2023-04-01T15:41:28;0.95;;;0.68;;
54454;SDS011;40364;52.270;10.546;2023-04-01T15:44:00;1.30;;;0.75;;
54454;SDS011;40364;52.270;10.546;2023-04-01T15:46:36;0.70;;;0.60;;
54454;SDS011;40364;52.270;10.546;2023-04-01T15:49:11;0.95;;;0.65;;
54454;SDS011;40364;52.270;10.546;2023-04-01T15:52:02;0.75;;;0.63;;
54454;SDS011;40364;52.270;10.546;2023-04-01T15:54:45;1.85;;;1.00;;
54454;SDS011;40364;52.270;10.546;2023-04-01T15:57:20;1.08;;;0.80;;
54454;SDS011;40364;52.270;10.546;2023-04-01T16:02:20;1.25;;;0.85;;
54454;SDS011;40364;52.270;10.546;2023-04-01T16:04:48;0.93;;;0.73;;
54454;SDS011;40364;52.270;10.546;2023-04-01T16:07:23;1.10;;;0.88;;
54454;SDS011;40364;52.270;10.546;2023-04-01T16:12:46;1.38;;;0.70;;
54454;SDS011;40364;52.270;10.546;2023-04-01T16:15:16;1.55;;;0.73;;
54454;SDS011;40364;52.270;10.546;2023-04-01T16:17:49;4.43;;;0.98;;
54454;SDS011;40364;52.270;10.546;2023-04-01T16:20:22;1.50;;;0.90;;